Flight Track Log - Related Links

Times and Time Zones

All times are in EDT time to prevent confusion due to time zone crossing. See the USC105 flight status page for this flight to view local times or setup timezone preferences in your user account.

Time Position Orientation Groundspeed Altitude Reporting Facility
EDT Latitude Longitude Course Direction KTS MPH feet Rate Location/Type
Tue 12:27:14 AM 42.2147 -83.5858 251° West 104 120 2,000  Level Cleveland Center
Tue 12:28:15 AM 42.2136 -83.6278 268° West 114 131 2,800 836 Climbing Cleveland Center
Tue 12:29:16 AM 42.2167 -83.6672 276° West 110 127 3,700 893 Climbing Cleveland Center
Tue 12:30:16 AM 42.2133 -83.7119 264° West 113 130 4,600 843 Climbing Cleveland Center
Tue 12:31:17 AM 42.2142 -83.7569 271° West 115 132 5,400 645 Climbing Cleveland Center
Tue 12:32:17 AM 42.2089 -83.8014 261° West 134 154 5,900 298 Climbing Cleveland Center
Tue 12:33:18 AM 42.2072 -83.8575 268° West 158 182 6,000 31 Climbing Cleveland Center
Tue 12:35:31 AM 42.1992 -83.9789 265° West 157 181 6,000  Level Chicago Center
Tue 12:36:32 AM 42.1964 -84.0378 266° West 157 181 6,000  Level Chicago Center
Tue 12:37:33 AM 42.1931 -84.0972 266° West 158 182 6,000  Level Chicago Center
Tue 12:38:34 AM 42.1875 -84.1583 263° West 159 183 6,000  Level Chicago Center
Tue 12:39:35 AM 42.1850 -84.2189 267° West 161 185 6,000  Level Chicago Center
Tue 12:40:36 AM 42.1817 -84.2783 266° West 161 185 6,000  Level Chicago Center
Tue 12:41:37 AM 42.1783 -84.3375 266° West 160 184 6,000  Level Chicago Center
Tue 12:42:37 AM 42.1750 -84.3972 266° West 161 185 6,000  Level Chicago Center
Tue 12:43:38 AM 42.1719 -84.4675 267° West 157 181 6,000  Level Chicago Center
Tue 12:44:39 AM 42.1683 -84.5250 265° West 155 178 6,000  Level Chicago Center
Tue 12:45:40 AM 42.1656 -84.5808 266° West 156 180 6,000  Level Chicago Center
Tue 12:46:41 AM 42.1622 -84.6367 265° West 153 176 6,000  Level Chicago Center
Tue 12:47:41 AM 42.1597 -84.6928 267° West 150 173 6,000  Level Chicago Center
Tue 12:48:42 AM 42.1564 -84.7500 266° West 153 176 6,000  Level Chicago Center
Tue 12:49:43 AM 42.1539 -84.8047 266° West 150 173 6,000  Level Chicago Center
Tue 12:50:44 AM 42.1503 -84.8581 265° West 145 167 6,000  Level Chicago Center
Tue 12:51:44 AM 42.1472 -84.9103 266° West 143 165 6,000  Level Chicago Center
Tue 12:52:45 AM 42.1447 -84.9633 266° West 142 163 6,000  Level Chicago Center
Tue 12:53:46 AM 42.1414 -85.0147 265° West 140 161 6,000  Level Chicago Center
Tue 12:54:47 AM 42.1378 -85.0756 265° West 138 159 6,000  Level Chicago Center
Tue 12:55:47 AM 42.1353 -85.1283 266° West 141 162 6,000  Level Chicago Center
Tue 12:56:48 AM 42.1322 -85.1808 266° West 141 162 6,000  Level Chicago Center
Tue 12:57:49 AM 42.1289 -85.2333 265° West 141 162 6,000  Level Chicago Center
Tue 12:58:49 AM 42.1261 -85.2872 266° West 144 166 6,000  Level Chicago Center
Tue 12:59:50 AM 42.1217 -85.3411 264° West 146 168 6,000  Level Chicago Center
Tue 01:00:51 AM 42.1200 -85.3944 268° West 144 166 6,000  Level Chicago Center
Tue 01:01:51 AM 42.1156 -85.4489 264° West 146 168 6,000  Level Chicago Center
Tue 01:02:52 AM 42.1117 -85.5058 265° West 151 174 6,000  Level Chicago Center
Tue 01:03:53 AM 42.1081 -85.5608 265° West 149 171 6,000  Level Chicago Center
Tue 01:04:53 AM 42.1053 -85.6164 266° West 148 170 6,000  Level Chicago Center
Tue 01:05:54 AM 42.1011 -85.6719 264° West 148 170 6,000  Level Chicago Center
Tue 01:06:55 AM 42.0972 -85.7258 264° West 147 169 6,000  Level Chicago Center
Tue 01:07:55 AM 42.0947 -85.7822 267° West 149 171 6,000  Level Chicago Center
Tue 01:08:56 AM 42.0911 -85.8364 265° West 148 170 6,000  Level Chicago Center
Tue 01:09:56 AM 42.0878 -85.8983 266° West 142 163 6,000  Level Chicago Center
Tue 01:10:57 AM 42.0839 -85.9539 265° West 147 169 6,000  Level Chicago Center
Tue 01:11:57 AM 42.0800 -86.0094 265° West 150 173 6,000  Level Chicago Center
Tue 01:12:58 AM 42.0764 -86.0664 265° West 151 174 6,000  Level Chicago Center
Tue 01:13:59 AM 42.0728 -86.1228 265° West 152 175 6,000  Level Chicago Center
Tue 01:14:59 AM 42.0686 -86.1778 264° West 150 173 6,000  Level Chicago Center
Tue 01:16:00 AM 42.0653 -86.2364 266° West 155 178 6,000  Level Chicago Center
Tue 01:17:00 AM 42.0606 -86.2917 263° West 153 176 6,000 298 Level Chicago Center
Tue 01:18:01 AM 42.0581 -86.3494 267° West 153 176 6,600 843 Climbing Chicago Center
Tue 01:19:01 AM 42.0564 -86.3925 267° West 120 138 7,700 694 Climbing Chicago Center
Tue 01:20:02 AM 42.0531 -86.4389 264° West 122 140 8,000 149 Climbing Chicago Center
Tue 01:21:02 AM 42.0522 -86.4972 269° West 150 173 8,000  Level Chicago Center
Tue 01:22:03 AM 42.0436 -86.5533 258° West 156 180 8,000  Level Chicago Center
Tue 01:23:03 AM 42.0394 -86.6111 264° West 156 180 8,000  Level Chicago Center
Tue 01:24:04 AM 42.0344 -86.6694 263° West 158 182 8,000  Level Chicago Center
Tue 01:25:05 AM 42.0311 -86.7308 266° West 156 180 8,000  Level Chicago Center
Tue 01:26:05 AM 42.0253 -86.7886 262° West 159 183 8,000  Level Chicago Center
Tue 01:27:06 AM 42.0217 -86.8472 265° West 158 182 8,000  Level Chicago Center
Tue 01:28:06 AM 42.0172 -86.9067 264° West 161 185 8,000  Level Chicago Center
Tue 01:29:07 AM 42.0119 -86.9647 263° West 160 184 8,000  Level Chicago Center
Tue 01:30:07 AM 42.0078 -87.0250 265° West 163 188 8,000 -50 Level Chicago Center
Tue 01:31:08 AM 41.9825 -87.0756 236° Southwest 168 193 7,900 -198 Descending Chicago Center
Tue 01:32:08 AM 41.9522 -87.1372 237° Southwest 168 193 7,600 -397 Descending Chicago Center
Tue 01:33:09 AM 41.9250 -87.1939 237° Southwest 180 207 7,100 -545 Descending Chicago Center
Tue 01:34:09 AM 41.8981 -87.2508 238° Southwest 182 209 6,500 -545 Descending Chicago Center
Tue 01:35:10 AM 41.8728 -87.3094 240° Southwest 183 211 6,000 -347 Descending Chicago Center
Tue 01:36:10 AM 41.8469 -87.3669 239° Southwest 182 209 5,800 -99 Descending Chicago Center
Tue 01:37:11 AM 41.8258 -87.4183 241° Southwest 164 189 5,800  Level Chicago Center
Tue 01:38:11 AM 41.8036 -87.4683 239° Southwest 158 182 5,800  Level Chicago Center
Tue 01:39:11 AM 41.7822 -87.5192 241° Southwest 158 182 5,800  Level Chicago Center
Tue 01:40:12 AM 41.7611 -87.5719 242° Southwest 160 184 5,800  Level Chicago Center
Tue 01:41:12 AM 41.7403 -87.6231 241° Southwest 159 183 5,800  Level Chicago Center
Tue 01:42:13 AM 41.7211 -87.6736 243° Southwest 156 180 5,800  Level Chicago Center
Tue 01:43:13 AM 41.7117 -87.7236 256° West 150 173 5,800 -99 Level Chicago Center
Tue 01:44:14 AM 41.7247 -87.7775 288° West 154 177 5,600 -446 Descending Chicago Center
Tue 01:45:14 AM 41.7297 -87.8386 276° West 160 184 4,900 -650 Descending Chicago Center
Tue 01:46:14 AM 41.7375 -87.9008 280° West 167 192 4,300 -545 Descending Chicago Center
Tue 01:47:15 AM 41.7500 -87.9728 283° West 168 193 3,800 -694 Descending Chicago Center
Tue 01:48:15 AM 41.7617 -88.0300 285° West 165 190 2,900 -645 Descending Chicago Center
Tue 01:49:16 AM 41.7742 -88.0894 286° West 166 191 2,500 -298 Descending Chicago Center
Tue 01:50:16 AM 41.7989 -88.1400 303° West 164 189 2,300 -100 Descending Chicago Center
Tue 01:51:16 AM 41.8308 -88.1808 316° Northwest 173 199 2,300 -50 Level Chicago Center
Tue 01:52:17 AM 41.8722 -88.2081 334° Northwest 171 197 2,200 -98 Descending Chicago Center
Tue 01:55:00 AM 41.9000 -88.2333 296° West  Level FlightAware Approximate

Login

Don't have an account? Register now (free) for customized features, flight alerts, and more!